»·PEaware :: N117SB KSAN-KPSP

N117SB :: KSAN-KPSP

FLIGHT INFORMATION

Flight Status: Arrived
Operator: Privately registered:
United States
More flights under this callsign
Pilot: Dean S. (16265)
Aircraft: DIAMOND DA-42 TWINSTAR
(DA42)
More flights by this aircraft type
Origin: KSAN San Diego Intl-Lindbergh
United States
Destination: KPSP Palm Springs Intl
United States
More flights between these airports :: More routes between these airports
Route: JLI HENOM
File this flight plan on PilotEdge
Remarks:
Altitude:
(Current/Filed)
7,500ft
Speed:
(Current/Filed)
140kts
Departed: 09-Jan-18 11:00 AM
Arrived: 09-Jan-18 11:46 AM
Distance/Time
Traveled:
74nm/0:45
Distance/Time
To Go:
Arrived

Flight Plot

Page will automatically refresh every two minutes.

Flight plan parsing failed; only flown route is shown


Map Options




Map Legend


Flown Route
Filed Route
Departure Airport
Arrival Airport
Navaid (VOR, NDB)
Fix

Horizontal Profiles

Position Reports

Time Latitude Longitude Heading Altitude Ground
Speed
09-Jan-18 10:44 32.732432 -117.193004 196 18ft 0kts
09-Jan-18 10:45 32.732432 -117.193004 196 18ft 0kts
09-Jan-18 10:46 32.732432 -117.193004 196 18ft 0kts
09-Jan-18 10:47 32.732432 -117.193004 196 18ft 0kts
09-Jan-18 10:48 32.732432 -117.193004 196 18ft 0kts
09-Jan-18 10:49 32.732432 -117.193004 196 18ft 0kts
09-Jan-18 10:50 32.732432 -117.193004 196 18ft 0kts
09-Jan-18 10:51 32.732432 -117.193004 196 18ft 0kts
09-Jan-18 10:52 32.732430 -117.193005 196 18ft 0kts
09-Jan-18 10:53 32.732428 -117.193006 196 18ft 0kts
09-Jan-18 10:54 32.732426 -117.193006 196 18ft 0kts
09-Jan-18 10:55 32.732424 -117.193007 196 18ft 0kts
09-Jan-18 10:56 32.732422 -117.193008 196 18ft 0kts
09-Jan-18 10:57 32.732420 -117.193008 196 18ft 0kts
09-Jan-18 10:58 32.732418 -117.193009 196 18ft 0kts
09-Jan-18 10:59 32.732416 -117.193010 196 18ft 0kts
09-Jan-18 11:00 32.732336 -117.193062 236 18ft 3kts
09-Jan-18 11:01 32.732765 -117.190619 109 18ft 14kts
09-Jan-18 11:02 32.731267 -117.184528 106 18ft 22kts
09-Jan-18 11:03 32.730217 -117.180040 106 18ft 19kts
09-Jan-18 11:04 32.729538 -117.176691 66 18ft 0kts
09-Jan-18 11:05 32.730381 -117.176577 273 18ft 16kts
09-Jan-18 11:06 32.736208 -117.199162 287 195ft 116kts
09-Jan-18 11:07 32.752010 -117.227348 322 1410ft 100kts
09-Jan-18 11:08 32.776302 -117.241020 12 2518ft 115kts
09-Jan-18 11:09 32.812466 -117.230404 13 2915ft 144kts
09-Jan-18 11:10 32.852156 -117.218693 13 3257ft 148kts
09-Jan-18 11:11 32.883302 -117.208687 13 4840ft 95kts
09-Jan-18 11:12 32.907969 -117.197277 13 6190ft 99kts
09-Jan-18 11:13 32.929147 -117.175283 82 7437ft 128kts
09-Jan-18 11:14 32.933676 -117.122300 82 7506ft 181kts
09-Jan-18 11:15 32.940064 -117.062734 80 7881ft 168kts
09-Jan-18 11:16 32.946942 -117.011120 78 8941ft 151kts
09-Jan-18 11:17 32.954974 -116.961108 76 9840ft 156kts
09-Jan-18 11:18 32.964291 -116.911968 73 10919ft 150kts
09-Jan-18 11:19 32.975654 -116.861254 71 11510ft 173kts
09-Jan-18 11:20 32.995166 -116.807855 52 11290ft 184kts
09-Jan-18 11:21 33.026419 -116.757633 47 10796ft 191kts
09-Jan-18 11:22 33.059723 -116.707731 47 10300ft 193kts
09-Jan-18 11:23 33.093526 -116.657434 47 9802ft 195kts
09-Jan-18 11:24 33.127262 -116.606999 47 9499ft 188kts
09-Jan-18 11:25 33.157964 -116.557693 51 9499ft 183kts
09-Jan-18 11:26 33.187069 -116.507585 50 9499ft 183kts
09-Jan-18 11:27 33.216227 -116.457900 50 9500ft 183kts
09-Jan-18 11:28 33.245128 -116.408644 50 9625ft 177kts
09-Jan-18 11:29 33.274487 -116.358592 50 9297ft 186kts
09-Jan-18 11:30 33.304301 -116.307685 50 8898ft 187kts
09-Jan-18 11:31 33.334154 -116.256650 50 8498ft 186kts
09-Jan-18 11:32 33.363778 -116.206012 50 8098ft 185kts
09-Jan-18 11:33 33.393228 -116.155536 50 7699ft 184kts
09-Jan-18 11:34 33.422138 -116.105831 50 7639ft 182kts
09-Jan-18 11:35 33.451162 -116.055893 51 7638ft 183kts
09-Jan-18 11:36 33.487945 -116.042053 305 7166ft 154kts
09-Jan-18 11:37 33.513296 -116.081129 305 6638ft 137kts
09-Jan-18 11:38 33.536721 -116.113200 306 6636ft 122kts
09-Jan-18 11:39 33.559177 -116.143267 306 6637ft 119kts
09-Jan-18 11:40 33.581665 -116.173343 306 6591ft 120kts
09-Jan-18 11:41 33.604209 -116.203543 307 6328ft 121kts
09-Jan-18 11:42 33.628439 -116.236052 309 5844ft 136kts
09-Jan-18 11:43 33.654155 -116.270540 311 5346ft 140kts
09-Jan-18 11:44 33.680461 -116.305813 312 4845ft 142kts
09-Jan-18 11:45 33.706463 -116.340748 312 4588ft 133kts
09-Jan-18 11:46 33.730526 -116.373050 312 4243ft 129kts
09-Jan-18 11:47 33.751398 -116.404898 299 3140ft 115kts
09-Jan-18 11:48 33.765531 -116.435998 297 2215ft 96kts
09-Jan-18 11:49 33.778830 -116.460451 313 1578ft 87kts
09-Jan-18 11:50 33.796662 -116.478200 323 1074ft 81kts
09-Jan-18 11:51 33.815278 -116.494785 323 626ft 85kts
09-Jan-18 11:52 33.828489 -116.506801 297 480ft 15kts
09-Jan-18 11:53 33.828693 -116.509736 268 480ft 24kts
09-Jan-18 11:54 33.828785 -116.513717 269 480ft 0kts
09-Jan-18 11:55 33.828785 -116.513717 269 480ft 0kts
09-Jan-18 11:56 33.828785 -116.513717 269 480ft 0kts
09-Jan-18 11:57 33.828785 -116.513717 269 480ft 0kts

Navigation Log

Ident Type
Flight plan parsing failed, navigation log unavailable